Capital City Airport
KLAN : now visible

Airfield :











YOU CAN JOIN US ON...

 
LOGIN :

Register | Disclaimer

   EN    FR    IT 

 









Legend :    VFR   Marginal VFR   IFR   Intensive IFR   Very Intensive IFR
Visi :
Ceiling :
>= 8 km
>= 3000ft
5 to 8 km
1000 to 3000 ft
1500m to 5 km
500 to 1000 ft
800 to 1500m
200 to 500 ft
< 800m
< 200 ft
Symbols :   Thunderstorms  Fog  Heavy snow  Heavy precipitations  Wind > 20 kt






- Airport Elevation : 861 ft
- IATA code : LAN


KLAN - Capital City

CURRENT METAR :
  • 171153Z 07005KT 10SM BKN110 M08/M12 A3022 RMK AO2 SLP245 T10781117 11056 21083 53008

EXPIRED METARs :
  • 171053Z 10005KT 10SM SCT100 OVC110 M07/M12 A3021 RMK AO2 SLP242 T10721117
  • 170953Z 06007KT 10SM SCT110 M08/M13 A3019 RMK AO2 SLP234 T10781133

TAF KLAN
Valid from the 17 at 12:00 until the 18 at 12:00 UTC


171140Z 1712/1812 10007KT P6SM BKN110
FM180000 11011KT 1 1/2SM -SN OVC015
FM180200 13012KT 1SM -SN BR OVC007
FM180400 13012KT 1SM -RA BR OVC007
FM180800 19009KT 4SM -RA BR OVC007



MET'MAP, your aeronautical weather chart ! - Copyright ORBIFLY December 2007 - Disclaimer

ORBIFLY MET'MAP TEAM :

Programming & Development : Alexandra Zaïnal
Concept & original design : Baudouin d'Aumeries
Assistance for programming : Marc-Olivier Méhu
Technical & hardware support : Manuel Goepfert

Contact : metmap@orbifly.com




SOURCES & CREDITS :

   NOAA       Earth
Advisory